createdAt,value
2019-02-18T00:00:54.035Z,99.99
2019-02-18T00:01:54.054Z,99.99
2019-02-18T00:02:54.014Z,99.99
2019-02-18T00:03:53.997Z,99.99
2019-02-18T00:04:53.988Z,99.99
2019-02-18T00:05:53.978Z,99.99
2019-02-18T00:06:54.007Z,99.99
2019-02-18T00:07:53.967Z,99.99
2019-02-18T00:08:53.958Z,99.87
2019-02-18T00:09:53.942Z,99.87
2019-02-18T00:10:53.940Z,99.66
2019-02-18T00:11:53.916Z,99.80
2019-02-18T00:12:53.941Z,99.80
2019-02-18T00:13:53.900Z,99.91
2019-02-18T00:14:53.883Z,99.80
2019-02-18T00:15:53.881Z,99.99
2019-02-18T00:16:53.865Z,99.99
2019-02-18T00:17:53.872Z,99.99
2019-02-18T00:18:53.878Z,99.99
2019-02-18T00:19:53.843Z,99.99
2019-02-18T00:20:54.062Z,99.99
2019-02-18T00:21:53.827Z,99.99
2019-02-18T00:22:53.809Z,99.99
2019-02-18T00:23:53.800Z,99.99
2019-02-18T00:24:53.797Z,99.99
2019-02-18T00:25:53.788Z,99.99
2019-02-18T00:26:53.815Z,99.99
2019-02-18T00:27:53.774Z,99.99
2019-02-18T00:28:53.760Z,99.99
2019-02-18T00:29:53.742Z,99.99
2019-02-18T00:30:53.731Z,99.76
2019-02-18T00:31:53.750Z,99.87
2019-02-18T00:32:53.717Z,99.49
2019-02-18T00:33:53.701Z,99.49
2019-02-18T00:34:53.693Z,99.01
2019-02-18T00:35:53.689Z,98.27
2019-02-18T00:36:53.724Z,97.67
2019-02-18T00:37:53.670Z,97.15
2019-02-18T00:38:53.652Z,97.78
2019-02-18T00:39:53.646Z,98.74
2019-02-18T00:40:53.635Z,99.26
2019-02-18T00:41:53.650Z,99.16
2019-02-18T00:42:53.628Z,99.58
2019-02-18T00:43:53.600Z,99.75
2019-02-18T00:44:53.594Z,99.75
2019-02-18T00:45:53.585Z,99.99
2019-02-18T00:46:53.602Z,99.99
2019-02-18T00:47:53.566Z,99.99
2019-02-18T00:48:53.554Z,99.99
2019-02-18T00:49:53.549Z,99.99
2019-02-18T00:50:53.538Z,99.99
2019-02-18T00:51:53.553Z,99.99
2019-02-18T00:52:53.517Z,99.99
2019-02-18T00:53:53.513Z,99.99
2019-02-18T00:54:53.496Z,99.99
2019-02-18T00:55:53.488Z,99.99
2019-02-18T00:56:53.521Z,99.99
2019-02-18T00:57:53.463Z,99.99
2019-02-18T00:58:53.454Z,99.99
2019-02-18T00:59:53.443Z,99.99
2019-02-18T01:00:53.446Z,99.99
2019-02-18T01:01:53.463Z,99.85
2019-02-18T01:02:53.426Z,99.37
2019-02-18T01:03:53.410Z,99.05
2019-02-18T01:04:53.409Z,97.83
2019-02-18T01:05:53.416Z,97.93
2019-02-18T01:06:53.379Z,97.51
2019-02-18T01:07:53.371Z,97.45
2019-02-18T01:08:53.358Z,98.14
2019-02-18T01:09:53.354Z,98.25
2019-02-18T01:10:53.335Z,98.68
2019-02-18T01:11:53.396Z,98.74
2019-02-18T01:12:53.320Z,99.26
2019-02-18T01:13:53.313Z,99.90
2019-02-18T01:14:53.308Z,99.90
2019-02-18T01:15:53.290Z,99.41
2019-02-18T01:16:53.314Z,99.41
2019-02-18T01:17:53.273Z,99.31
2019-02-18T01:18:53.256Z,99.20
2019-02-18T01:19:53.252Z,99.10
2019-02-18T01:20:53.244Z,99.41
2019-02-18T01:21:53.236Z,99.52
2019-02-18T01:22:53.520Z,99.52
2019-02-18T01:23:53.221Z,99.04
2019-02-18T01:24:53.199Z,99.35
2019-02-18T01:25:53.195Z,99.35
2019-02-18T01:26:53.192Z,99.35
2019-02-18T01:27:53.174Z,98.40
2019-02-18T01:28:53.198Z,98.40
2019-02-18T01:29:53.151Z,99.14
2019-02-18T01:30:53.141Z,99.25
2019-02-18T01:31:53.149Z,99.25
2019-02-18T01:32:53.164Z,99.14
2019-02-18T01:33:53.122Z,99.63
2019-02-18T01:34:53.108Z,99.57
2019-02-18T01:35:54.066Z,99.88
2019-02-18T01:36:53.080Z,99.35
2019-02-18T01:37:53.105Z,99.29
2019-02-18T01:38:53.063Z,98.97
2019-02-18T01:39:53.047Z,98.02
2019-02-18T01:40:53.049Z,98.24
2019-02-18T01:41:53.036Z,98.02
2019-02-18T01:42:53.097Z,99.19
2019-02-18T01:43:53.011Z,99.29
2019-02-18T01:44:53.008Z,98.97
2019-02-18T01:45:52.999Z,99.82
2019-02-18T01:46:52.989Z,99.71
2019-02-18T01:47:53.000Z,99.46
2019-02-18T01:48:52.963Z,99.99
2019-02-18T01:49:52.955Z,99.99
2019-02-18T01:50:52.943Z,99.99
2019-02-18T01:51:52.929Z,99.99
2019-02-18T01:52:52.948Z,99.99
2019-02-18T01:53:52.920Z,99.99
2019-02-18T01:54:52.903Z,99.99
2019-02-18T01:55:52.903Z,99.99
2019-02-18T01:56:52.885Z,99.46
2019-02-18T01:57:52.901Z,99.51
2019-02-18T01:58:52.861Z,99.19
2019-02-18T01:59:52.856Z,98.34
2019-02-18T02:00:52.849Z,98.97
2019-02-18T02:01:52.846Z,99.40
2019-02-18T02:02:52.847Z,99.67
2019-02-18T02:03:52.827Z,99.46
2019-02-18T02:04:52.802Z,99.95
2019-02-18T02:05:52.803Z,99.99
2019-02-18T02:06:52.784Z,99.99
2019-02-18T02:07:56.272Z,99.99
2019-02-18T02:08:52.767Z,99.99
2019-02-18T02:09:52.762Z,99.99
2019-02-18T02:10:52.746Z,99.99
2019-02-18T02:11:52.738Z,99.99
2019-02-18T02:12:52.759Z,99.99
2019-02-18T02:13:52.714Z,99.99
2019-02-18T02:14:52.703Z,99.99
2019-02-18T02:15:52.701Z,99.99
2019-02-18T02:16:52.682Z,99.31
2019-02-18T02:17:52.706Z,99.99
2019-02-18T02:18:52.671Z,99.95
2019-02-18T02:19:52.666Z,99.99
2019-02-18T02:20:52.652Z,99.99
2019-02-18T02:21:52.634Z,99.99
2019-02-18T02:22:52.671Z,99.99
2019-02-18T02:23:52.619Z,99.99
2019-02-18T02:24:52.605Z,99.99
2019-02-18T02:25:52.614Z,99.99
2019-02-18T02:26:52.588Z,99.99
2019-02-18T02:27:52.607Z,99.99
2019-02-18T02:28:52.567Z,99.99
2019-02-18T02:29:52.555Z,99.99
2019-02-18T02:30:52.547Z,99.99
2019-02-18T02:31:52.537Z,99.95
2019-02-18T02:32:52.580Z,99.99
2019-02-18T02:33:52.521Z,99.35
2019-02-18T02:34:52.508Z,99.46
2019-02-18T02:35:52.501Z,99.88
2019-02-18T02:36:52.492Z,99.99
2019-02-18T02:37:52.510Z,99.99
2019-02-18T02:38:52.466Z,99.99
2019-02-18T02:39:52.455Z,99.99
2019-02-18T02:40:52.445Z,99.99
2019-02-18T02:41:52.443Z,99.99
2019-02-18T02:42:52.441Z,99.99
2019-02-18T02:43:52.449Z,99.99
2019-02-18T02:44:52.416Z,99.99
2019-02-18T02:45:52.403Z,99.99
2019-02-18T02:46:52.386Z,99.35
2019-02-18T02:47:52.385Z,99.14
2019-02-18T02:48:52.400Z,99.29
2019-02-18T02:49:52.356Z,98.24
2019-02-18T02:50:52.355Z,97.43
2019-02-18T02:51:52.358Z,97.75
2019-02-18T02:52:52.336Z,97.75
2019-02-18T02:53:52.358Z,98.28
2019-02-18T02:54:52.318Z,98.38
2019-02-18T02:55:52.301Z,99.33
2019-02-18T02:56:52.303Z,99.40
2019-02-18T02:57:52.281Z,99.44
2019-02-18T02:58:52.311Z,99.23
2019-02-18T02:59:52.279Z,98.38
2019-02-18T03:00:52.260Z,99.55
2019-02-18T03:01:52.244Z,99.29
2019-02-18T03:02:52.265Z,99.13
2019-02-18T03:03:52.264Z,99.44
2019-02-18T03:04:53.062Z,98.28
2019-02-18T03:05:52.207Z,97.79
2019-02-18T03:06:52.203Z,97.58
2019-02-18T03:07:53.051Z,96.62
2019-02-18T03:08:52.603Z,96.56
2019-02-18T03:09:52.226Z,97.79
2019-02-18T03:10:52.215Z,99.49
2019-02-18T03:11:52.183Z,99.44
2019-02-18T03:12:52.318Z,99.65
2019-02-18T03:13:52.246Z,99.76
2019-02-18T03:14:52.165Z,99.44
2019-02-18T03:15:52.151Z,99.55
2019-02-18T03:16:52.224Z,99.99
2019-02-18T03:17:52.126Z,99.99
2019-02-18T03:18:52.219Z,99.99
2019-02-18T03:19:52.116Z,99.99
2019-02-18T03:20:52.107Z,99.88
2019-02-18T03:21:52.203Z,99.99
2019-02-18T03:22:52.106Z,99.99
2019-02-18T03:23:52.092Z,99.67
2019-02-18T03:24:52.159Z,99.67
2019-02-18T03:25:52.143Z,99.40
2019-02-18T03:26:52.053Z,98.07
2019-02-18T03:27:52.045Z,97.69
2019-02-18T03:28:52.038Z,97.69
2019-02-18T03:29:52.119Z,96.42
2019-02-18T03:30:52.020Z,96.56
2019-02-18T03:31:52.102Z,97.09
2019-02-18T03:32:53.030Z,96.14
2019-02-18T03:33:51.989Z,96.82
2019-02-18T03:34:51.963Z,97.88
2019-02-18T03:35:52.054Z,98.09
2019-02-18T03:36:51.948Z,97.63
2019-02-18T03:37:51.937Z,97.56
2019-02-18T03:38:52.009Z,96.82
2019-02-18T03:39:51.934Z,97.45
2019-02-18T03:41:02.476Z,97.35
2019-02-18T03:41:52.898Z,97.35
2019-02-18T03:42:51.905Z,97.45
2019-02-18T03:43:51.967Z,97.56
2019-02-18T03:44:51.863Z,97.88
2019-02-18T03:45:51.850Z,97.88
2019-02-18T03:46:51.848Z,97.88
2019-02-18T03:47:51.799Z,97.77
2019-02-18T03:48:51.922Z,97.35
2019-02-18T03:49:51.834Z,98.62
2019-02-18T03:50:51.911Z,99.32
2019-02-18T03:51:51.831Z,99.43
2019-02-18T03:52:51.803Z,99.49
2019-02-18T03:53:51.931Z,99.99
2019-02-18T03:54:51.779Z,99.99
2019-02-18T03:55:51.776Z,99.99
2019-02-18T03:56:51.848Z,99.99
2019-02-18T03:57:51.805Z,99.99
2019-02-18T03:58:51.754Z,99.99
2019-02-18T03:59:51.718Z,99.99
2019-02-18T04:00:51.711Z,99.27
2019-02-18T04:01:51.708Z,99.11
2019-02-18T04:02:51.686Z,99.32
2019-02-18T04:03:51.775Z,98.26
2019-02-18T04:04:51.676Z,97.67
2019-02-18T04:05:51.748Z,97.67
2019-02-18T04:06:51.653Z,97.77
2019-02-18T04:07:51.630Z,97.67
2019-02-18T04:08:51.722Z,97.88
2019-02-18T04:09:51.637Z,96.92
2019-02-18T04:10:51.661Z,97.18
2019-02-18T04:11:51.642Z,96.44
2019-02-18T04:12:51.594Z,96.44
2019-02-18T04:13:51.583Z,97.56
2019-02-18T04:14:51.589Z,98.94
2019-02-18T04:15:51.561Z,99.47
2019-02-18T04:16:51.635Z,98.94
2019-02-18T04:17:51.552Z,99.32
2019-02-18T04:18:51.548Z,99.64
2019-02-18T04:19:52.386Z,99.99
2019-02-18T04:20:51.581Z,99.99
2019-02-18T04:21:51.493Z,99.99
2019-02-18T04:22:51.496Z,99.99
2019-02-18T04:23:51.485Z,99.99
2019-02-18T04:24:51.478Z,99.99
2019-02-18T04:25:51.526Z,99.99
2019-02-18T04:26:51.428Z,99.80
2019-02-18T04:27:51.446Z,99.38
2019-02-18T04:28:51.412Z,98.90
2019-02-18T04:29:51.414Z,98.16
2019-02-18T04:30:51.435Z,97.99
2019-02-18T04:31:51.395Z,97.56
2019-02-18T04:32:51.388Z,97.56
2019-02-18T04:33:51.365Z,97.14
2019-02-18T04:34:51.349Z,96.82
2019-02-18T04:35:51.445Z,96.61
2019-02-18T04:36:51.328Z,97.35
2019-02-18T04:37:51.317Z,96.39
2019-02-18T04:38:54.068Z,97.67
2019-02-18T04:39:51.313Z,97.81
2019-02-18T04:40:51.330Z,97.56
2019-02-18T04:41:51.285Z,98.41
2019-02-18T04:42:51.271Z,98.62
2019-02-18T04:43:51.269Z,99.32
2019-02-18T04:44:51.256Z,99.47
2019-02-18T04:45:51.239Z,99.58
2019-02-18T04:46:51.261Z,98.41
2019-02-18T04:47:51.251Z,97.45
2019-02-18T04:48:51.210Z,97.81
2019-02-18T04:49:51.202Z,97.92
2019-02-18T04:50:51.184Z,97.44
2019-02-18T04:51:51.175Z,95.74
2019-02-18T04:52:51.192Z,95.89
2019-02-18T04:53:51.160Z,95.25
2019-02-18T04:54:51.168Z,95.15
2019-02-18T04:55:51.186Z,94.87
2019-02-18T04:56:51.140Z,94.55
2019-02-18T04:57:51.159Z,95.40
2019-02-18T04:58:51.144Z,95.83
2019-02-18T04:59:51.150Z,96.57
2019-02-18T05:00:51.160Z,96.14
2019-02-18T05:01:51.085Z,95.08
2019-02-18T05:02:51.079Z,95.65
2019-02-18T05:03:51.065Z,94.70
2019-02-18T05:04:51.058Z,94.49
2019-02-18T05:05:51.065Z,95.55
2019-02-18T05:06:51.061Z,96.08
2019-02-18T05:07:51.036Z,96.40
2019-02-18T05:08:51.071Z,95.61
2019-02-18T05:09:51.004Z,97.80
2019-02-18T05:10:50.995Z,99.46
2019-02-18T05:11:50.982Z,99.79
2019-02-18T05:12:50.980Z,99.99
2019-02-18T05:13:51.093Z,99.96
2019-02-18T05:14:50.965Z,99.85
2019-02-18T05:15:50.945Z,99.37
2019-02-18T05:16:50.938Z,99.37
2019-02-18T05:17:50.964Z,98.67
2019-02-18T05:18:50.928Z,97.97
2019-02-18T05:19:50.916Z,97.65
2019-02-18T05:20:50.899Z,96.69
2019-02-18T05:21:50.918Z,96.42
2019-02-18T05:22:50.877Z,97.16
2019-02-18T05:23:50.884Z,97.02
2019-02-18T05:24:50.861Z,98.18
2019-02-18T05:25:50.850Z,96.84
2019-02-18T05:26:50.870Z,97.06
2019-02-18T05:27:50.838Z,96.25
2019-02-18T05:28:50.823Z,95.83
2019-02-18T05:29:50.818Z,95.93
2019-02-18T05:30:50.820Z,97.20
2019-02-18T05:31:50.828Z,97.80
2019-02-18T05:32:50.777Z,98.54
2019-02-18T05:33:50.771Z,98.71
2019-02-18T05:34:50.766Z,98.71
2019-02-18T05:35:50.754Z,98.50
2019-02-18T05:36:50.777Z,98.07
2019-02-18T05:37:50.731Z,97.65
2019-02-18T05:38:50.768Z,96.63
2019-02-18T05:39:50.717Z,95.67
2019-02-18T05:40:50.703Z,94.55
2019-02-18T05:41:50.721Z,95.40
2019-02-18T05:42:50.686Z,95.83
2019-02-18T05:43:50.670Z,97.52
2019-02-18T05:44:50.666Z,97.91
2019-02-18T05:45:50.662Z,98.28
2019-02-18T05:46:50.674Z,99.35
2019-02-18T05:47:50.637Z,99.52
2019-02-18T05:48:50.631Z,99.41
2019-02-18T05:49:50.619Z,99.62
2019-02-18T05:50:50.604Z,99.52
2019-02-18T05:51:50.636Z,99.84
2019-02-18T05:52:50.594Z,99.84
2019-02-18T05:53:50.576Z,99.84
2019-02-18T05:54:50.571Z,99.99
2019-02-18T05:55:50.588Z,99.73
2019-02-18T05:56:50.590Z,99.52
2019-02-18T05:57:50.551Z,99.66
2019-02-18T05:58:50.576Z,98.28
2019-02-18T05:59:50.537Z,97.54
2019-02-18T06:00:50.632Z,97.65
2019-02-18T06:01:50.518Z,97.86
2019-02-18T06:02:50.494Z,97.12
2019-02-18T06:03:50.517Z,96.59
2019-02-18T06:04:50.496Z,95.61
2019-02-18T06:05:50.489Z,95.19
2019-02-18T06:06:50.514Z,96.04
2019-02-18T06:07:51.079Z,96.57
2019-02-18T06:08:50.455Z,97.74
2019-02-18T06:09:50.426Z,97.95
2019-02-18T06:10:50.416Z,96.78
2019-02-18T06:11:50.436Z,96.89
2019-02-18T06:12:50.395Z,96.61
2019-02-18T06:13:50.383Z,96.61
2019-02-18T06:14:50.372Z,96.50
2019-02-18T06:15:50.373Z,96.40
2019-02-18T06:16:50.411Z,96.72
2019-02-18T06:17:50.349Z,96.30
2019-02-18T06:18:50.333Z,96.08
2019-02-18T06:19:50.345Z,95.76
2019-02-18T06:20:50.315Z,95.23
2019-02-18T06:21:50.309Z,95.91
2019-02-18T06:22:50.332Z,94.53
2019-02-18T06:23:50.311Z,94.42
2019-02-18T06:24:50.274Z,93.68
2019-02-18T06:25:50.294Z,95.81
2019-02-18T06:26:50.264Z,96.93
2019-02-18T06:27:51.621Z,97.67
2019-02-18T06:28:50.259Z,97.95
2019-02-18T06:29:50.234Z,98.16
2019-02-18T06:30:50.228Z,98.01
2019-02-18T06:31:50.211Z,97.91
2019-02-18T06:32:50.239Z,97.16
2019-02-18T06:33:50.193Z,96.84
2019-02-18T06:34:50.178Z,97.91
2019-02-18T06:35:50.178Z,97.86
2019-02-18T06:36:52.044Z,98.18
2019-02-18T06:37:50.186Z,98.07
2019-02-18T06:38:50.149Z,98.46
2019-02-18T06:39:50.139Z,98.50
2019-02-18T06:40:50.116Z,98.03
2019-02-18T06:41:50.151Z,97.61
2019-02-18T06:42:52.060Z,97.71
2019-02-18T06:43:50.094Z,97.61
2019-02-18T06:44:50.088Z,97.61
2019-02-18T06:45:50.094Z,97.50
2019-02-18T06:46:50.094Z,97.50
2019-02-18T06:47:50.086Z,97.08
2019-02-18T06:48:50.080Z,96.55
2019-02-18T06:49:50.030Z,96.55
2019-02-18T06:50:50.039Z,96.01
2019-02-18T06:51:50.021Z,94.74
2019-02-18T06:52:50.034Z,94.42
2019-02-18T06:53:50.003Z,93.79
2019-02-18T06:54:50.004Z,94.53
2019-02-18T06:55:49.992Z,94.64
2019-02-18T06:56:50.034Z,94.53
2019-02-18T06:57:50.004Z,95.17
2019-02-18T06:58:49.959Z,96.01
2019-02-18T06:59:49.950Z,98.09
2019-02-18T07:00:49.946Z,97.99
2019-02-18T07:01:49.977Z,98.68
2019-02-18T07:02:49.916Z,99.38
2019-02-18T07:03:49.928Z,99.44
2019-02-18T07:04:49.897Z,99.08
2019-02-18T07:05:49.884Z,98.99
2019-02-18T07:06:49.909Z,98.06
2019-02-18T07:07:50.073Z,96.32
2019-02-18T07:08:49.877Z,93.49
2019-02-18T07:09:51.500Z,91.34
2019-02-18T07:10:49.829Z,89.97
2019-02-18T07:11:49.830Z,89.04
2019-02-18T07:12:49.849Z,88.31
2019-02-18T07:13:49.802Z,87.74
2019-02-18T07:14:49.800Z,86.05
2019-02-18T07:15:49.800Z,84.54
2019-02-18T07:16:49.772Z,83.49
2019-02-18T07:17:49.798Z,84.50
2019-02-18T07:18:49.760Z,84.92
2019-02-18T07:19:49.755Z,85.35
2019-02-18T07:20:49.734Z,86.46
2019-02-18T07:21:49.752Z,84.25
2019-02-18T07:22:50.300Z,82.95
2019-02-18T07:23:49.705Z,85.13
2019-02-18T07:24:49.708Z,82.92
2019-02-18T07:25:49.729Z,81.76
2019-02-18T07:26:49.688Z,82.04
2019-02-18T07:27:49.691Z,81.58
2019-02-18T07:28:49.664Z,81.16
2019-02-18T07:29:49.650Z,81.44
2019-02-18T07:30:49.636Z,79.76
2019-02-18T07:31:49.632Z,79.93
2019-02-18T07:32:49.680Z,80.35
2019-02-18T07:33:49.632Z,80.74
2019-02-18T07:34:49.621Z,79.23
2019-02-18T07:35:49.630Z,79.20
2019-02-18T07:36:49.584Z,81.08
2019-02-18T07:37:49.637Z,80.52
2019-02-18T07:38:49.556Z,80.52
2019-02-18T07:39:49.547Z,79.72
2019-02-18T07:40:49.537Z,79.09
2019-02-18T07:41:49.539Z,79.54
2019-02-18T07:42:49.554Z,79.02
2019-02-18T07:43:49.542Z,79.08
2019-02-18T07:44:49.500Z,79.26
2019-02-18T07:45:49.487Z,75.92
2019-02-18T07:46:49.483Z,75.29
2019-02-18T07:47:49.488Z,75.39
2019-02-18T07:48:49.467Z,77.59
2019-02-18T07:49:49.446Z,75.71
2019-02-18T07:50:49.467Z,75.50
2019-02-18T07:51:49.431Z,75.60
2019-02-18T07:52:49.465Z,75.60
2019-02-18T07:53:49.400Z,75.36
2019-02-18T07:54:49.390Z,75.22
2019-02-18T07:55:49.382Z,75.12
2019-02-18T07:56:49.378Z,76.54
2019-02-18T07:57:49.395Z,77.34
2019-02-18T07:58:49.356Z,77.41
2019-02-18T07:59:49.349Z,76.96
2019-02-18T08:00:49.336Z,77.55
2019-02-18T08:01:49.323Z,77.20
2019-02-18T08:02:49.349Z,75.92
2019-02-18T08:03:49.306Z,75.36
2019-02-18T08:04:49.299Z,75.05
2019-02-18T08:05:49.282Z,75.74
2019-02-18T08:06:49.303Z,75.85
2019-02-18T08:07:49.316Z,75.19
2019-02-18T08:08:49.256Z,74.36
2019-02-18T08:09:49.247Z,74.01
2019-02-18T08:10:49.238Z,73.25
2019-02-18T08:11:49.225Z,71.83
2019-02-18T08:12:49.213Z,71.91
2019-02-18T08:13:49.245Z,70.62
2019-02-18T08:14:49.194Z,69.42
2019-02-18T08:15:49.178Z,68.90
2019-02-18T08:16:49.183Z,70.56
2019-02-18T08:17:49.190Z,70.62
2019-02-18T08:18:49.180Z,70.10
2019-02-18T08:19:49.152Z,72.77
2019-02-18T08:20:49.135Z,70.49
2019-02-18T08:21:49.125Z,69.24
2019-02-18T08:22:49.117Z,69.24
2019-02-18T08:23:59.413Z,69.14
2019-02-18T08:24:50.095Z,70.39
2019-02-18T08:25:49.088Z,71.80
2019-02-18T08:26:49.068Z,68.59
2019-02-18T08:27:49.061Z,69.18
2019-02-18T08:28:49.991Z,70.47
2019-02-18T08:29:49.041Z,69.32
2019-02-18T08:30:49.036Z,68.64
2019-02-18T08:31:49.018Z,68.54
2019-02-18T08:32:49.007Z,68.33
2019-02-18T08:33:49.062Z,67.37
2019-02-18T08:34:48.987Z,68.48
2019-02-18T08:35:48.976Z,66.76
2019-02-18T08:36:48.969Z,66.86
2019-02-18T08:37:48.963Z,65.11
2019-02-18T08:38:48.980Z,66.83
2019-02-18T08:39:48.947Z,64.84
2019-02-18T08:40:48.937Z,64.84
2019-02-18T08:41:48.958Z,66.18
2019-02-18T08:42:48.906Z,64.19
2019-02-18T08:43:48.906Z,64.71
2019-02-18T08:44:48.921Z,63.75
2019-02-18T08:45:48.877Z,63.72
2019-02-18T08:46:48.873Z,63.52
2019-02-18T08:47:48.861Z,63.90
2019-02-18T08:48:48.868Z,62.97
2019-02-18T08:49:48.829Z,61.81
2019-02-18T08:50:48.859Z,61.02
2019-02-18T08:51:48.818Z,59.68
2019-02-18T08:52:48.803Z,62.56
2019-02-18T08:53:48.824Z,61.51
2019-02-18T08:54:56.306Z,60.96
2019-02-18T08:55:49.774Z,60.83
2019-02-18T08:56:48.768Z,61.44
2019-02-18T08:57:48.751Z,60.70
2019-02-18T08:58:48.785Z,59.88
2019-02-18T08:59:48.731Z,58.95
2019-02-18T09:00:48.720Z,59.88
2019-02-18T09:01:48.717Z,58.13
2019-02-18T09:02:48.702Z,57.21
2019-02-18T09:03:48.727Z,56.93
2019-02-18T09:04:48.713Z,59.39
2019-02-18T09:05:48.674Z,58.03
2019-02-18T09:06:48.658Z,58.21
2019-02-18T09:07:48.678Z,57.46
2019-02-18T09:08:48.645Z,59.28
2019-02-18T09:09:51.160Z,57.20
2019-02-18T09:10:48.642Z,54.72
2019-02-18T09:11:48.631Z,55.54
2019-02-18T09:12:48.602Z,54.72
2019-02-18T09:13:48.587Z,55.23
2019-02-18T09:14:48.577Z,55.62
2019-02-18T09:15:48.572Z,55.58
2019-02-18T09:16:48.565Z,55.26
2019-02-18T09:17:48.606Z,53.69
2019-02-18T09:18:48.537Z,53.77
2019-02-18T09:19:48.516Z,53.95
2019-02-18T09:20:48.515Z,51.98
2019-02-18T09:21:48.506Z,51.98
2019-02-18T09:22:48.488Z,52.29
2019-02-18T09:23:48.503Z,51.55
2019-02-18T09:24:48.475Z,50.78
2019-02-18T09:25:48.466Z,52.75
2019-02-18T09:26:48.450Z,51.93
2019-02-18T09:27:48.449Z,52.29
2019-02-18T09:28:48.462Z,51.45
2019-02-18T09:29:48.420Z,51.22
2019-02-18T09:30:48.405Z,49.08
2019-02-18T09:31:48.402Z,49.41
2019-02-18T09:32:48.393Z,49.08
2019-02-18T09:33:48.405Z,49.79
2019-02-18T09:34:53.293Z,50.41
2019-02-18T09:35:49.361Z,50.89
2019-02-18T09:36:48.350Z,48.42
2019-02-18T09:37:48.333Z,46.87
2019-02-18T09:38:48.325Z,49.21
2019-02-18T09:39:48.339Z,46.44
2019-02-18T09:40:51.401Z,47.54
2019-02-18T09:41:48.289Z,45.18
2019-02-18T09:42:48.277Z,45.28
2019-02-18T09:43:48.283Z,44.06
2019-02-18T09:44:48.261Z,44.24
2019-02-18T09:45:48.277Z,44.14
2019-02-18T09:46:48.240Z,43.96
2019-02-18T09:47:48.229Z,45.00
2019-02-18T09:48:48.250Z,45.18
2019-02-18T09:49:48.205Z,44.45
2019-02-18T09:50:48.199Z,43.61
2019-02-18T09:51:48.186Z,43.79
2019-02-18T09:52:48.175Z,43.16
2019-02-18T09:53:48.199Z,41.33
2019-02-18T09:54:48.159Z,42.74
2019-02-18T09:55:48.147Z,41.30
2019-02-18T09:56:48.207Z,40.18
2019-02-18T09:57:48.119Z,42.35
2019-02-18T09:58:50.168Z,43.57
2019-02-18T09:59:48.098Z,42.13
2019-02-18T10:00:48.092Z,40.89
2019-02-18T10:01:48.095Z,41.17
2019-02-18T10:02:48.076Z,39.94
2019-02-18T10:03:48.110Z,40.83
2019-02-18T10:04:48.051Z,39.50
2019-02-18T10:05:48.052Z,39.68
2019-02-18T10:06:48.030Z,38.14
2019-02-18T10:07:48.056Z,38.14
2019-02-18T10:08:48.033Z,38.93
2019-02-18T10:09:48.002Z,38.95
2019-02-18T10:10:55.304Z,39.68
2019-02-18T10:11:48.975Z,38.84
2019-02-18T10:12:47.979Z,38.04
2019-02-18T10:13:47.984Z,39.34
2019-02-18T10:14:47.950Z,38.23
2019-02-18T10:15:47.942Z,37.10
2019-02-18T10:16:47.931Z,35.77
2019-02-18T10:17:47.913Z,36.69
2019-02-18T10:18:47.941Z,36.57
2019-02-18T10:19:47.907Z,36.99
2019-02-18T10:20:47.878Z,38.71
2019-02-18T10:21:47.872Z,36.98
2019-02-18T10:22:47.864Z,36.86
2019-02-18T10:23:47.880Z,35.92
2019-02-18T10:24:50.750Z,35.19
2019-02-18T10:25:48.837Z,34.49
2019-02-18T10:26:47.815Z,34.99
2019-02-18T10:27:47.813Z,34.57
2019-02-18T10:28:47.797Z,34.97
2019-02-18T10:29:47.822Z,34.47
2019-02-18T10:30:47.778Z,34.37
2019-02-18T10:31:47.765Z,35.16
2019-02-18T10:32:47.788Z,33.55
2019-02-18T10:33:47.753Z,32.54
2019-02-18T10:34:47.746Z,33.87
2019-02-18T10:35:47.734Z,34.97
2019-02-18T10:36:47.716Z,34.96
2019-02-18T10:37:54.834Z,34.64
2019-02-18T10:38:48.719Z,34.51
2019-02-18T10:39:47.707Z,33.80
2019-02-18T10:40:47.714Z,33.00
2019-02-18T10:41:47.659Z,32.90
2019-02-18T10:42:47.649Z,32.68
2019-02-18T10:43:47.692Z,31.48
2019-02-18T10:44:47.636Z,31.46
2019-02-18T10:45:47.619Z,31.37
2019-02-18T10:46:47.609Z,32.39
2019-02-18T10:47:47.616Z,32.18
2019-02-18T10:48:47.639Z,32.36
2019-02-18T10:49:47.576Z,31.26
2019-02-18T10:50:47.575Z,31.36
2019-02-18T10:51:47.559Z,30.97
2019-02-18T10:52:47.552Z,33.00
2019-02-18T10:53:47.600Z,34.09
2019-02-18T10:54:49.507Z,32.87
2019-02-18T10:55:47.517Z,31.33
2019-02-18T10:56:47.511Z,31.31
2019-02-18T10:57:47.507Z,31.83
2019-02-18T10:58:47.492Z,31.34
2019-02-18T10:59:47.507Z,31.93
2019-02-18T11:00:47.475Z,30.61
2019-02-18T11:01:47.457Z,30.60
2019-02-18T11:02:47.503Z,30.81
2019-02-18T11:03:47.430Z,29.79
2019-02-18T11:04:47.466Z,30.57
2019-02-18T11:05:47.427Z,29.85
2019-02-18T11:06:47.404Z,28.35
2019-02-18T11:07:47.394Z,29.55
2019-02-18T11:08:47.383Z,29.85
2019-02-18T11:09:47.402Z,30.24
2019-02-18T11:10:47.354Z,29.34
2019-02-18T11:11:47.347Z,28.32
2019-02-18T11:12:47.788Z,30.04
2019-02-18T11:13:47.332Z,29.44
2019-02-18T11:14:47.409Z,29.36
2019-02-18T11:15:47.314Z,28.67
2019-02-18T11:16:47.296Z,28.91
2019-02-18T11:17:47.288Z,29.79
2019-02-18T11:18:47.317Z,29.68
2019-02-18T11:19:47.318Z,28.66
2019-02-18T11:20:47.255Z,29.53
2019-02-18T11:21:47.248Z,28.31
2019-02-18T11:22:47.282Z,27.28
2019-02-18T11:23:47.228Z,26.57
2019-02-18T11:24:47.213Z,26.57
2019-02-18T11:25:47.221Z,28.47
2019-02-18T11:26:47.189Z,27.08
2019-02-18T11:27:47.183Z,29.22
2019-02-18T11:28:47.166Z,28.84
2019-02-18T11:29:47.185Z,29.27
2019-02-18T11:30:47.153Z,29.58
2019-02-18T11:31:47.134Z,29.97
2019-02-18T11:32:47.124Z,29.53
2019-02-18T11:33:47.131Z,27.62
2019-02-18T11:34:47.135Z,27.02
2019-02-18T11:35:48.055Z,27.20
2019-02-18T11:36:47.084Z,28.42
2019-02-18T11:37:47.076Z,29.34
2019-02-18T11:38:47.097Z,27.39
2019-02-18T11:39:47.081Z,26.58
2019-02-18T11:40:47.044Z,26.17
2019-02-18T11:41:47.049Z,25.96
2019-02-18T11:42:47.023Z,25.76
2019-02-18T11:43:47.006Z,25.36
2019-02-18T11:44:47.028Z,24.46
2019-02-18T11:45:46.992Z,25.46
2019-02-18T11:46:46.979Z,26.17
2019-02-18T11:47:46.964Z,26.26
2019-02-18T11:48:46.959Z,25.76
2019-02-18T11:49:47.008Z,27.27
2019-02-18T11:50:46.945Z,25.37
2019-02-18T11:51:46.925Z,25.79
2019-02-18T11:52:47.516Z,26.52
2019-02-18T11:53:46.937Z,28.25
2019-02-18T11:54:46.926Z,28.77
2019-02-18T11:55:46.888Z,28.33
2019-02-18T11:56:46.872Z,26.81
2019-02-18T11:57:46.861Z,25.28
2019-02-18T11:58:46.849Z,25.86
2019-02-18T11:59:46.867Z,24.86
2019-02-18T12:00:46.828Z,25.09
2019-02-18T12:01:46.820Z,24.79
2019-02-18T12:02:46.817Z,25.96
2019-02-18T12:03:46.806Z,24.65
2019-02-18T12:04:46.795Z,25.13
2019-02-18T12:05:46.817Z,24.43
2019-02-18T12:06:46.777Z,23.72
2019-02-18T12:07:46.768Z,24.10
2019-02-18T12:08:46.762Z,23.02
2019-02-18T12:09:46.735Z,23.72
2019-02-18T12:10:46.756Z,23.82
2019-02-18T12:11:46.736Z,24.40
2019-02-18T12:12:46.705Z,24.11
2019-02-18T12:13:46.716Z,23.23
2019-02-18T12:14:46.708Z,22.64
2019-02-18T12:15:46.809Z,23.95
2019-02-18T12:16:46.661Z,25.37
2019-02-18T12:17:46.662Z,29.28
2019-02-18T12:18:46.646Z,29.29
2019-02-18T12:19:46.641Z,27.96
2019-02-18T12:20:46.654Z,27.83
2019-02-18T12:21:46.612Z,26.93
2019-02-18T12:22:46.609Z,28.45
2019-02-18T12:23:46.588Z,27.56
2019-02-18T12:24:46.613Z,28.17
2019-02-18T12:25:46.599Z,28.69
2019-02-18T12:26:46.556Z,28.66
2019-02-18T12:27:46.545Z,27.14
2019-02-18T12:28:46.539Z,26.81
2019-02-18T12:29:46.528Z,25.87
2019-02-18T12:30:46.616Z,25.56
2019-02-18T12:31:46.510Z,25.85
2019-02-18T12:32:46.497Z,25.74
2019-02-18T12:33:46.498Z,24.43
2019-02-18T12:34:46.473Z,23.80
2019-02-18T12:35:46.607Z,25.10
2019-02-18T12:36:46.469Z,23.60
2019-02-18T12:37:55.024Z,24.28
2019-02-18T12:38:47.431Z,24.49
2019-02-18T12:39:46.432Z,25.30
2019-02-18T12:40:46.433Z,24.62
2019-02-18T12:41:49.017Z,25.63
2019-02-18T12:42:46.393Z,25.52
2019-02-18T12:43:46.394Z,25.41
2019-02-18T12:44:46.404Z,23.99
2019-02-18T12:45:46.369Z,25.18
2019-02-18T12:46:46.403Z,23.18
2019-02-18T12:47:46.372Z,23.35
2019-02-18T12:48:46.339Z,22.34
2019-02-18T12:49:46.328Z,21.94
2019-02-18T12:50:46.320Z,22.24
2019-02-18T12:51:46.296Z,21.04
2019-02-18T12:52:46.319Z,21.95